sensor_id;sensor_type;location;lat;lon;timestamp;temperature;humidity
38910;DHT22;24676;51.360;12.354;2022-11-20T05:00:49;-5.60;99.90
38910;DHT22;24676;51.360;12.354;2022-11-20T05:03:35;-5.60;99.90
38910;DHT22;24676;51.360;12.354;2022-11-20T05:06:22;-5.60;99.90
38910;DHT22;24676;51.360;12.354;2022-11-20T05:09:06;-5.60;99.90
38910;DHT22;24676;51.360;12.354;2022-11-20T05:11:50;-5.60;99.90
38910;DHT22;24676;51.360;12.354;2022-11-20T05:14:34;-5.60;99.90
38910;DHT22;24676;51.360;12.354;2022-11-20T05:17:19;-5.50;99.90
38910;DHT22;24676;51.360;12.354;2022-11-20T05:20:03;-5.50;99.90
38910;DHT22;24676;51.360;12.354;2022-11-20T05:22:48;-5.40;99.90
38910;DHT22;24676;51.360;12.354;2022-11-20T05:25:32;-5.40;99.90
38910;DHT22;24676;51.360;12.354;2022-11-20T05:28:16;-5.40;99.90
38910;DHT22;24676;51.360;12.354;2022-11-20T05:31:09;-5.50;99.90
38910;DHT22;24676;51.360;12.354;2022-11-20T05:33:53;-5.50;99.90
38910;DHT22;24676;51.360;12.354;2022-11-20T05:36:38;-5.50;99.90
38910;DHT22;24676;51.360;12.354;2022-11-20T05:39:22;-5.50;99.90
38910;DHT22;24676;51.360;12.354;2022-11-20T05:42:06;-5.50;99.90
38910;DHT22;24676;51.360;12.354;2022-11-20T05:45:09;-5.50;99.90
38910;DHT22;24676;51.360;12.354;2022-11-20T05:47:57;-5.50;99.90
38910;DHT22;24676;51.360;12.354;2022-11-20T05:50:41;-5.50;99.90
38910;DHT22;24676;51.360;12.354;2022-11-20T05:53:25;-5.50;99.90
38910;DHT22;24676;51.360;12.354;2022-11-20T05:56:11;-5.50;99.90
38910;DHT22;24676;51.360;12.354;2022-11-20T05:58:56;-5.30;99.90
38910;DHT22;24676;51.360;12.354;2022-11-20T06:01:40;-5.30;99.90
38910;DHT22;24676;51.360;12.354;2022-11-20T06:04:25;-5.30;99.90
38910;DHT22;24676;51.360;12.354;2022-11-20T06:07:09;-5.40;99.90
38910;DHT22;24676;51.360;12.354;2022-11-20T06:09:53;-5.50;99.90
38910;DHT22;24676;51.360;12.354;2022-11-20T06:12:37;-5.40;99.90
38910;DHT22;24676;51.360;12.354;2022-11-20T06:15:22;-5.20;99.90
38910;DHT22;24676;51.360;12.354;2022-11-20T06:18:06;-5.00;99.90
38910;DHT22;24676;51.360;12.354;2022-11-20T06:21:02;-5.10;99.90
38910;DHT22;24676;51.360;12.354;2022-11-20T06:23:48;-5.20;99.90
38910;DHT22;24676;51.360;12.354;2022-11-20T06:26:33;-5.30;99.90
38910;DHT22;24676;51.360;12.354;2022-11-20T06:29:17;-5.30;99.90
38910;DHT22;24676;51.360;12.354;2022-11-20T06:32:01;-5.40;99.90
38910;DHT22;24676;51.360;12.354;2022-11-20T06:34:45;-5.40;99.90
38910;DHT22;24676;51.360;12.354;2022-11-20T06:37:29;-5.40;99.90
38910;DHT22;24676;51.360;12.354;2022-11-20T06:40:13;-5.40;99.90
38910;DHT22;24676;51.360;12.354;2022-11-20T06:42:57;-5.40;99.90
38910;DHT22;24676;51.360;12.354;2022-11-20T06:45:42;-5.30;99.90
38910;DHT22;24676;51.360;12.354;2022-11-20T06:48:28;-5.30;99.90
38910;DHT22;24676;51.360;12.354;2022-11-20T06:51:12;-5.20;99.90
38910;DHT22;24676;51.360;12.354;2022-11-20T06:53:57;-5.20;99.90
38910;DHT22;24676;51.360;12.354;2022-11-20T06:56:41;-5.30;99.90
38910;DHT22;24676;51.360;12.354;2022-11-20T06:59:25;-5.30;99.90
38910;DHT22;24676;51.360;12.354;2022-11-20T07:02:11;-5.30;99.90
38910;DHT22;24676;51.360;12.354;2022-11-20T07:04:56;-5.20;99.90
38910;DHT22;24676;51.360;12.354;2022-11-20T07:07:39;-5.20;99.90
38910;DHT22;24676;51.360;12.354;2022-11-20T07:10:24;-5.20;99.90
38910;DHT22;24676;51.360;12.354;2022-11-20T07:13:08;-5.10;99.90
38910;DHT22;24676;51.360;12.354;2022-11-20T07:15:53;-5.10;99.90
38910;DHT22;24676;51.360;12.354;2022-11-20T07:18:38;-5.10;99.90
38910;DHT22;24676;51.360;12.354;2022-11-20T07:21:22;-4.90;99.90
38910;DHT22;24676;51.360;12.354;2022-11-20T07:24:06;-4.80;99.90
38910;DHT22;24676;51.360;12.354;2022-11-20T07:26:50;-4.70;99.90
38910;DHT22;24676;51.360;12.354;2022-11-20T07:29:34;-4.60;99.90
38910;DHT22;24676;51.360;12.354;2022-11-20T07:32:18;-4.50;99.90
38910;DHT22;24676;51.360;12.354;2022-11-20T07:35:02;-4.20;99.90
38910;DHT22;24676;51.360;12.354;2022-11-20T07:37:46;-3.80;99.90
38910;DHT22;24676;51.360;12.354;2022-11-20T07:40:32;-3.40;99.90
38910;DHT22;24676;51.360;12.354;2022-11-20T07:43:16;-3.00;99.90
38910;DHT22;24676;51.360;12.354;2022-11-20T07:46:01;-2.70;99.90
38910;DHT22;24676;51.360;12.354;2022-11-20T07:48:45;-2.40;99.90
38910;DHT22;24676;51.360;12.354;2022-11-20T07:51:29;-2.20;99.90
38910;DHT22;24676;51.360;12.354;2022-11-20T07:54:14;-1.90;99.90
38910;DHT22;24676;51.360;12.354;2022-11-20T07:56:58;-1.70;99.90
38910;DHT22;24676;51.360;12.354;2022-11-20T07:59:42;-1.60;99.90
38910;DHT22;24676;51.360;12.354;2022-11-20T08:02:26;-1.40;99.90
38910;DHT22;24676;51.360;12.354;2022-11-20T08:05:11;-1.30;99.90
38910;DHT22;24676;51.360;12.354;2022-11-20T08:07:56;-1.20;99.90
38910;DHT22;24676;51.360;12.354;2022-11-20T08:10:40;-1.20;99.90
38910;DHT22;24676;51.360;12.354;2022-11-20T08:13:24;-1.10;99.90
38910;DHT22;24676;51.360;12.354;2022-11-20T08:16:27;-1.00;99.90
38910;DHT22;24676;51.360;12.354;2022-11-20T08:19:13;-0.90;99.90
38910;DHT22;24676;51.360;12.354;2022-11-20T08:21:57;-0.80;99.90
38910;DHT22;24676;51.360;12.354;2022-11-20T08:24:41;-0.60;99.90
38910;DHT22;24676;51.360;12.354;2022-11-20T08:27:26;-0.50;99.90
38910;DHT22;24676;51.360;12.354;2022-11-20T08:30:10;-0.40;99.90
38910;DHT22;24676;51.360;12.354;2022-11-20T08:32:59;-0.40;99.90
38910;DHT22;24676;51.360;12.354;2022-11-20T08:35:45;-0.50;99.90
38910;DHT22;24676;51.360;12.354;2022-11-20T08:38:30;-0.30;99.90
38910;DHT22;24676;51.360;12.354;2022-11-20T08:41:14;-0.20;99.90
38910;DHT22;24676;51.360;12.354;2022-11-20T08:44:08;-0.20;99.90
38910;DHT22;24676;51.360;12.354;2022-11-20T08:46:52;0.00;99.90
38910;DHT22;24676;51.360;12.354;2022-11-20T08:49:37;0.10;99.90
38910;DHT22;24676;51.360;12.354;2022-11-20T08:52:21;0.20;99.90
38910;DHT22;24676;51.360;12.354;2022-11-20T08:55:06;0.20;99.90
38910;DHT22;24676;51.360;12.354;2022-11-20T08:57:51;0.40;99.90
38910;DHT22;24676;51.360;12.354;2022-11-20T09:00:35;0.50;99.90
38910;DHT22;24676;51.360;12.354;2022-11-20T09:03:19;0.60;99.90
38910;DHT22;24676;51.360;12.354;2022-11-20T09:06:06;0.90;99.90
38910;DHT22;24676;51.360;12.354;2022-11-20T09:08:54;1.40;99.90
38910;DHT22;24676;51.360;12.354;2022-11-20T09:11:38;1.90;99.90
38910;DHT22;24676;51.360;12.354;2022-11-20T09:14:23;2.20;99.90
38910;DHT22;24676;51.360;12.354;2022-11-20T09:17:12;2.30;99.90
38910;DHT22;24676;51.360;12.354;2022-11-20T09:19:58;2.10;99.90
38910;DHT22;24676;51.360;12.354;2022-11-20T09:22:42;2.40;99.90
38910;DHT22;24676;51.360;12.354;2022-11-20T09:25:27;2.70;99.90
38910;DHT22;24676;51.360;12.354;2022-11-20T09:28:12;3.40;99.90
38910;DHT22;24676;51.360;12.354;2022-11-20T09:30:56;3.90;94.70
38910;DHT22;24676;51.360;12.354;2022-11-20T09:33:41;3.90;95.00
38910;DHT22;24676;51.360;12.354;2022-11-20T09:36:25;4.20;93.60
38910;DHT22;24676;51.360;12.354;2022-11-20T09:39:10;3.80;89.30
38910;DHT22;24676;51.360;12.354;2022-11-20T09:45:13;4.10;92.60
38910;DHT22;24676;51.360;12.354;2022-11-20T09:54:49;5.70;78.50
38910;DHT22;24676;51.360;12.354;2022-11-20T09:57:41;5.10;77.70
38910;DHT22;24676;51.360;12.354;2022-11-20T10:00:27;4.50;85.10
38910;DHT22;24676;51.360;12.354;2022-11-20T10:03:36;4.40;87.50
38910;DHT22;24676;51.360;12.354;2022-11-20T10:06:31;4.30;86.70
38910;DHT22;24676;51.360;12.354;2022-11-20T10:09:24;4.10;89.00
38910;DHT22;24676;51.360;12.354;2022-11-20T10:27:41;2.70;99.90
38910;DHT22;24676;51.360;12.354;2022-11-20T10:30:27;3.20;99.90
38910;DHT22;24676;51.360;12.354;2022-11-20T10:33:16;2.80;99.90
38910;DHT22;24676;51.360;12.354;2022-11-20T10:36:19;2.40;99.90
38910;DHT22;24676;51.360;12.354;2022-11-20T10:45:17;1.90;99.90
38910;DHT22;24676;51.360;12.354;2022-11-20T10:57:00;1.80;99.90
38910;DHT22;24676;51.360;12.354;2022-11-20T11:02:55;1.70;99.90
38910;DHT22;24676;51.360;12.354;2022-11-20T11:08:44;1.40;99.90
38910;DHT22;24676;51.360;12.354;2022-11-20T11:11:32;1.40;99.90
38910;DHT22;24676;51.360;12.354;2022-11-20T11:14:17;1.40;99.90
38910;DHT22;24676;51.360;12.354;2022-11-20T11:17:02;1.40;99.90
38910;DHT22;24676;51.360;12.354;2022-11-20T11:19:56;1.30;99.90
38910;DHT22;24676;51.360;12.354;2022-11-20T11:22:47;1.40;99.90
38910;DHT22;24676;51.360;12.354;2022-11-20T11:25:34;1.60;99.90
38910;DHT22;24676;51.360;12.354;2022-11-20T11:28:22;1.70;99.90
38910;DHT22;24676;51.360;12.354;2022-11-20T11:31:08;1.80;99.90
38910;DHT22;24676;51.360;12.354;2022-11-20T11:34:04;1.80;99.90
38910;DHT22;24676;51.360;12.354;2022-11-20T11:36:59;1.60;99.90
38910;DHT22;24676;51.360;12.354;2022-11-20T11:39:44;1.50;99.90
38910;DHT22;24676;51.360;12.354;2022-11-20T11:42:30;1.50;99.90
38910;DHT22;24676;51.360;12.354;2022-11-20T11:45:15;1.70;99.90
38910;DHT22;24676;51.360;12.354;2022-11-20T11:48:03;2.20;99.90
38910;DHT22;24676;51.360;12.354;2022-11-20T11:50:49;3.30;99.90
38910;DHT22;24676;51.360;12.354;2022-11-20T11:53:34;4.60;99.90
38910;DHT22;24676;51.360;12.354;2022-11-20T11:56:22;5.40;97.60
38910;DHT22;24676;51.360;12.354;2022-11-20T11:59:08;6.10;87.30
38910;DHT22;24676;51.360;12.354;2022-11-20T12:02:00;6.60;82.40
38910;DHT22;24676;51.360;12.354;2022-11-20T12:04:53;6.60;76.90
38910;DHT22;24676;51.360;12.354;2022-11-20T12:07:42;6.80;75.20
38910;DHT22;24676;51.360;12.354;2022-11-20T12:16:05;7.00;72.00
38910;DHT22;24676;51.360;12.354;2022-11-20T12:18:51;7.00;71.80
38910;DHT22;24676;51.360;12.354;2022-11-20T12:21:38;6.60;70.50
38910;DHT22;24676;51.360;12.354;2022-11-20T12:30:20;5.50;78.00
38910;DHT22;24676;51.360;12.354;2022-11-20T12:36:32;4.30;90.70
38910;DHT22;24676;51.360;12.354;2022-11-20T12:39:48;4.00;93.30
38910;DHT22;24676;51.360;12.354;2022-11-20T12:43:29;3.40;98.90
38910;DHT22;24676;51.360;12.354;2022-11-20T12:52:51;2.50;99.90
38910;DHT22;24676;51.360;12.354;2022-11-20T12:55:52;2.30;99.90
38910;DHT22;24676;51.360;12.354;2022-11-20T12:58:54;2.10;99.90
38910;DHT22;24676;51.360;12.354;2022-11-20T13:01:52;2.10;99.90
38910;DHT22;24676;51.360;12.354;2022-11-20T13:07:28;1.80;99.90
38910;DHT22;24676;51.360;12.354;2022-11-20T13:10:18;1.70;99.90
38910;DHT22;24676;51.360;12.354;2022-11-20T13:13:22;1.60;99.90
38910;DHT22;24676;51.360;12.354;2022-11-20T13:16:23;1.60;99.90
38910;DHT22;24676;51.360;12.354;2022-11-20T13:19:12;1.60;99.90
38910;DHT22;24676;51.360;12.354;2022-11-20T13:21:57;1.60;99.90
38910;DHT22;24676;51.360;12.354;2022-11-20T13:24:50;1.60;99.90
38910;DHT22;24676;51.360;12.354;2022-11-20T13:27:35;1.50;99.90
38910;DHT22;24676;51.360;12.354;2022-11-20T13:30:31;1.40;99.90
38910;DHT22;24676;51.360;12.354;2022-11-20T13:33:35;1.40;99.90
38910;DHT22;24676;51.360;12.354;2022-11-20T13:36:26;1.30;99.90
38910;DHT22;24676;51.360;12.354;2022-11-20T13:39:10;1.20;99.90
38910;DHT22;24676;51.360;12.354;2022-11-20T13:42:00;1.10;99.90
38910;DHT22;24676;51.360;12.354;2022-11-20T13:44:51;1.10;99.90
38910;DHT22;24676;51.360;12.354;2022-11-20T13:47:37;1.10;99.90
38910;DHT22;24676;51.360;12.354;2022-11-20T13:50:50;1.00;99.90
38910;DHT22;24676;51.360;12.354;2022-11-20T14:00:17;0.90;99.90
38910;DHT22;24676;51.360;12.354;2022-11-20T14:05:53;0.90;99.90
38910;DHT22;24676;51.360;12.354;2022-11-20T14:08:42;0.90;99.90
38910;DHT22;24676;51.360;12.354;2022-11-20T14:11:30;0.90;99.90
38910;DHT22;24676;51.360;12.354;2022-11-20T14:14:19;0.90;99.90
38910;DHT22;24676;51.360;12.354;2022-11-20T14:17:15;0.80;99.90
38910;DHT22;24676;51.360;12.354;2022-11-20T14:20:07;0.80;99.90
38910;DHT22;24676;51.360;12.354;2022-11-20T14:22:56;0.80;99.90
38910;DHT22;24676;51.360;12.354;2022-11-20T14:25:45;0.80;99.90
38910;DHT22;24676;51.360;12.354;2022-11-20T14:28:30;0.70;99.90
38910;DHT22;24676;51.360;12.354;2022-11-20T14:31:26;0.80;99.90
38910;DHT22;24676;51.360;12.354;2022-11-20T14:34:19;0.70;99.90
38910;DHT22;24676;51.360;12.354;2022-11-20T14:37:05;0.70;99.90
38910;DHT22;24676;51.360;12.354;2022-11-20T14:39:54;0.60;99.90
38910;DHT22;24676;51.360;12.354;2022-11-20T14:42:43;0.60;99.90
38910;DHT22;24676;51.360;12.354;2022-11-20T14:45:28;0.50;99.90
38910;DHT22;24676;51.360;12.354;2022-11-20T14:48:12;0.40;99.90
38910;DHT22;24676;51.360;12.354;2022-11-20T14:50:57;0.40;99.90
38910;DHT22;24676;51.360;12.354;2022-11-20T14:53:41;0.20;99.90
38910;DHT22;24676;51.360;12.354;2022-11-20T14:56:25;0.20;99.90
38910;DHT22;24676;51.360;12.354;2022-11-20T14:59:09;0.10;99.90
38910;DHT22;24676;51.360;12.354;2022-11-20T15:04:56;-0.20;99.90
38910;DHT22;24676;51.360;12.354;2022-11-20T15:07:42;-0.20;99.90
38910;DHT22;24676;51.360;12.354;2022-11-20T15:10:29;-0.30;99.90
38910;DHT22;24676;51.360;12.354;2022-11-20T15:13:30;-0.40;99.90
38910;DHT22;24676;51.360;12.354;2022-11-20T15:16:21;-0.40;99.90
38910;DHT22;24676;51.360;12.354;2022-11-20T15:19:24;-0.50;99.90
38910;DHT22;24676;51.360;12.354;2022-11-20T15:22:12;-0.50;99.90
38910;DHT22;24676;51.360;12.354;2022-11-20T15:25:00;-0.60;99.90
38910;DHT22;24676;51.360;12.354;2022-11-20T15:27:45;-0.70;99.90
38910;DHT22;24676;51.360;12.354;2022-11-20T15:30:29;-0.70;99.90
38910;DHT22;24676;51.360;12.354;2022-11-20T15:33:17;-0.70;99.90
38910;DHT22;24676;51.360;12.354;2022-11-20T15:36:01;-0.80;99.90
38910;DHT22;24676;51.360;12.354;2022-11-20T15:38:46;-0.90;99.90
38910;DHT22;24676;51.360;12.354;2022-11-20T15:41:30;-0.90;99.90
38910;DHT22;24676;51.360;12.354;2022-11-20T15:44:15;-0.90;99.90
38910;DHT22;24676;51.360;12.354;2022-11-20T15:46:59;-1.00;99.90
38910;DHT22;24676;51.360;12.354;2022-11-20T15:49:43;-1.00;99.90
38910;DHT22;24676;51.360;12.354;2022-11-20T15:52:28;-1.10;99.90
38910;DHT22;24676;51.360;12.354;2022-11-20T15:55:12;-1.10;99.90
38910;DHT22;24676;51.360;12.354;2022-11-20T15:57:56;-1.10;99.90
38910;DHT22;24676;51.360;12.354;2022-11-20T16:00:40;-1.20;99.90
38910;DHT22;24676;51.360;12.354;2022-11-20T16:03:24;-1.20;99.90
38910;DHT22;24676;51.360;12.354;2022-11-20T16:06:09;-1.20;99.90
38910;DHT22;24676;51.360;12.354;2022-11-20T16:08:53;-1.30;99.90
38910;DHT22;24676;51.360;12.354;2022-11-20T16:11:38;-1.30;99.90
38910;DHT22;24676;51.360;12.354;2022-11-20T16:14:22;-1.40;99.90
38910;DHT22;24676;51.360;12.354;2022-11-20T16:17:25;-1.40;99.90
38910;DHT22;24676;51.360;12.354;2022-11-20T16:20:26;-1.40;99.90
38910;DHT22;24676;51.360;12.354;2022-11-20T16:23:10;-1.40;99.90
38910;DHT22;24676;51.360;12.354;2022-11-20T16:25:54;-1.50;99.90
38910;DHT22;24676;51.360;12.354;2022-11-20T16:28:39;-1.40;99.90
38910;DHT22;24676;51.360;12.354;2022-11-20T16:31:24;-1.50;99.90
38910;DHT22;24676;51.360;12.354;2022-11-20T16:34:08;-1.60;99.90
38910;DHT22;24676;51.360;12.354;2022-11-20T16:36:52;-1.60;99.90
38910;DHT22;24676;51.360;12.354;2022-11-20T16:39:37;-1.40;99.90
38910;DHT22;24676;51.360;12.354;2022-11-20T16:42:21;-1.30;99.90
38910;DHT22;24676;51.360;12.354;2022-11-20T16:45:06;-1.20;99.90
38910;DHT22;24676;51.360;12.354;2022-11-20T16:47:50;-1.20;99.90
38910;DHT22;24676;51.360;12.354;2022-11-20T16:50:34;-1.00;99.90
38910;DHT22;24676;51.360;12.354;2022-11-20T16:53:20;-0.90;99.90
38910;DHT22;24676;51.360;12.354;2022-11-20T16:56:13;-0.80;99.90
38910;DHT22;24676;51.360;12.354;2022-11-20T16:59:03;-0.80;99.90
38910;DHT22;24676;51.360;12.354;2022-11-20T17:01:50;-0.80;99.90
38910;DHT22;24676;51.360;12.354;2022-11-20T17:04:34;-0.90;99.90
38910;DHT22;24676;51.360;12.354;2022-11-20T17:07:19;-1.00;99.90
38910;DHT22;24676;51.360;12.354;2022-11-20T17:10:03;-1.10;99.90
38910;DHT22;24676;51.360;12.354;2022-11-20T17:12:47;-1.20;99.90
38910;DHT22;24676;51.360;12.354;2022-11-20T17:15:32;-1.00;99.90
38910;DHT22;24676;51.360;12.354;2022-11-20T17:18:16;-1.00;99.90
38910;DHT22;24676;51.360;12.354;2022-11-20T17:21:01;-1.10;99.90
38910;DHT22;24676;51.360;12.354;2022-11-20T17:23:49;-1.30;99.90
38910;DHT22;24676;51.360;12.354;2022-11-20T17:26:34;-1.50;99.90
38910;DHT22;24676;51.360;12.354;2022-11-20T17:29:18;-1.60;99.90
38910;DHT22;24676;51.360;12.354;2022-11-20T17:32:06;-1.80;99.90
38910;DHT22;24676;51.360;12.354;2022-11-20T17:34:51;-2.00;99.90
38910;DHT22;24676;51.360;12.354;2022-11-20T17:37:35;-2.10;99.90
38910;DHT22;24676;51.360;12.354;2022-11-20T17:40:20;-2.10;99.90
38910;DHT22;24676;51.360;12.354;2022-11-20T17:43:04;-2.10;99.90
38910;DHT22;24676;51.360;12.354;2022-11-20T17:45:48;-2.20;99.90
38910;DHT22;24676;51.360;12.354;2022-11-20T17:48:34;-2.30;99.90
38910;DHT22;24676;51.360;12.354;2022-11-20T17:51:20;-2.20;99.90
38910;DHT22;24676;51.360;12.354;2022-11-20T17:54:05;-2.20;99.90
38910;DHT22;24676;51.360;12.354;2022-11-20T17:56:52;-2.30;99.90
38910;DHT22;24676;51.360;12.354;2022-11-20T17:59:55;-2.40;99.90
38910;DHT22;24676;51.360;12.354;2022-11-20T18:02:40;-2.40;99.90
38910;DHT22;24676;51.360;12.354;2022-11-20T18:05:28;-2.40;99.90
38910;DHT22;24676;51.360;12.354;2022-11-20T18:08:12;-2.40;99.90
38910;DHT22;24676;51.360;12.354;2022-11-20T18:10:56;-2.40;99.90
38910;DHT22;24676;51.360;12.354;2022-11-20T18:13:42;-2.40;99.90
38910;DHT22;24676;51.360;12.354;2022-11-20T18:16:55;-2.40;99.90
38910;DHT22;24676;51.360;12.354;2022-11-20T18:19:43;-2.50;99.90
38910;DHT22;24676;51.360;12.354;2022-11-20T18:22:28;-2.50;99.90
38910;DHT22;24676;51.360;12.354;2022-11-20T18:25:12;-2.60;99.90
38910;DHT22;24676;51.360;12.354;2022-11-20T18:27:57;-2.60;99.90
38910;DHT22;24676;51.360;12.354;2022-11-20T18:30:41;-2.60;99.90
38910;DHT22;24676;51.360;12.354;2022-11-20T18:33:25;-2.50;99.90
38910;DHT22;24676;51.360;12.354;2022-11-20T18:36:16;-2.50;99.90
38910;DHT22;24676;51.360;12.354;2022-11-20T18:39:01;-2.50;99.90
38910;DHT22;24676;51.360;12.354;2022-11-20T18:41:46;-2.50;99.90
38910;DHT22;24676;51.360;12.354;2022-11-20T18:44:49;-2.50;99.90
38910;DHT22;24676;51.360;12.354;2022-11-20T18:47:38;-2.50;99.90
38910;DHT22;24676;51.360;12.354;2022-11-20T18:50:23;-2.50;99.90
38910;DHT22;24676;51.360;12.354;2022-11-20T18:53:07;-2.50;99.90
38910;DHT22;24676;51.360;12.354;2022-11-20T18:55:51;-2.50;99.90
38910;DHT22;24676;51.360;12.354;2022-11-20T18:58:36;-2.50;99.90
38910;DHT22;24676;51.360;12.354;2022-11-20T19:01:20;-2.40;99.90
38910;DHT22;24676;51.360;12.354;2022-11-20T19:04:09;-2.40;99.90
38910;DHT22;24676;51.360;12.354;2022-11-20T19:06:54;-2.30;99.90
38910;DHT22;24676;51.360;12.354;2022-11-20T19:09:44;-2.20;99.90
38910;DHT22;24676;51.360;12.354;2022-11-20T19:12:31;-2.20;99.90
38910;DHT22;24676;51.360;12.354;2022-11-20T19:15:15;-2.10;99.90
38910;DHT22;24676;51.360;12.354;2022-11-20T19:17:59;-2.00;99.90
38910;DHT22;24676;51.360;12.354;2022-11-20T19:20:44;-1.80;99.90
38910;DHT22;24676;51.360;12.354;2022-11-20T19:23:28;-1.70;99.90
38910;DHT22;24676;51.360;12.354;2022-11-20T19:26:12;-1.70;99.90
38910;DHT22;24676;51.360;12.354;2022-11-20T19:28:56;-1.70;99.90
38910;DHT22;24676;51.360;12.354;2022-11-20T19:31:42;-1.70;99.90
38910;DHT22;24676;51.360;12.354;2022-11-20T19:34:26;-1.50;99.90
38910;DHT22;24676;51.360;12.354;2022-11-20T19:37:10;-1.40;99.90
38910;DHT22;24676;51.360;12.354;2022-11-20T19:39:54;-1.30;99.90
38910;DHT22;24676;51.360;12.354;2022-11-20T19:42:42;-1.00;99.90
38910;DHT22;24676;51.360;12.354;2022-11-20T19:45:26;-0.80;99.90
38910;DHT22;24676;51.360;12.354;2022-11-20T19:48:10;-0.70;99.90
38910;DHT22;24676;51.360;12.354;2022-11-20T19:50:54;-0.80;99.90
38910;DHT22;24676;51.360;12.354;2022-11-20T19:53:39;-0.70;99.90
38910;DHT22;24676;51.360;12.354;2022-11-20T19:56:24;-0.70;99.90
38910;DHT22;24676;51.360;12.354;2022-11-20T19:59:08;-0.70;99.90
38910;DHT22;24676;51.360;12.354;2022-11-20T20:01:52;-0.70;99.90
38910;DHT22;24676;51.360;12.354;2022-11-20T20:04:37;-0.70;99.90
38910;DHT22;24676;51.360;12.354;2022-11-20T20:07:21;-0.70;99.90
38910;DHT22;24676;51.360;12.354;2022-11-20T20:10:06;-0.80;99.90
38910;DHT22;24676;51.360;12.354;2022-11-20T20:12:50;-0.80;99.90
38910;DHT22;24676;51.360;12.354;2022-11-20T20:15:38;-0.80;99.90
38910;DHT22;24676;51.360;12.354;2022-11-20T20:18:24;-0.90;99.90
38910;DHT22;24676;51.360;12.354;2022-11-20T20:21:11;-0.90;99.90
38910;DHT22;24676;51.360;12.354;2022-11-20T20:23:57;-0.80;99.90
38910;DHT22;24676;51.360;12.354;2022-11-20T20:26:41;-0.70;99.90
38910;DHT22;24676;51.360;12.354;2022-11-20T20:29:25;-0.20;99.90
38910;DHT22;24676;51.360;12.354;2022-11-20T20:32:09;-0.10;99.90
38910;DHT22;24676;51.360;12.354;2022-11-20T20:34:54;-0.10;99.90
38910;DHT22;24676;51.360;12.354;2022-11-20T20:37:39;-0.10;99.90
38910;DHT22;24676;51.360;12.354;2022-11-20T20:40:23;-0.10;99.90
38910;DHT22;24676;51.360;12.354;2022-11-20T20:43:07;-0.20;99.90
38910;DHT22;24676;51.360;12.354;2022-11-20T20:45:52;-0.20;99.90
38910;DHT22;24676;51.360;12.354;2022-11-20T20:48:40;-0.20;99.90
38910;DHT22;24676;51.360;12.354;2022-11-20T20:51:24;-0.20;99.90
38910;DHT22;24676;51.360;12.354;2022-11-20T20:54:09;-0.10;99.90
38910;DHT22;24676;51.360;12.354;2022-11-20T20:56:55;-0.20;99.90
38910;DHT22;24676;51.360;12.354;2022-11-20T20:59:43;-0.20;99.90
38910;DHT22;24676;51.360;12.354;2022-11-20T21:02:27;-0.20;99.90
38910;DHT22;24676;51.360;12.354;2022-11-20T21:05:12;-0.10;99.90
38910;DHT22;24676;51.360;12.354;2022-11-20T21:07:56;-0.10;99.90
38910;DHT22;24676;51.360;12.354;2022-11-20T21:11:08;-0.10;99.90
38910;DHT22;24676;51.360;12.354;2022-11-20T21:13:53;-0.10;99.90
38910;DHT22;24676;51.360;12.354;2022-11-20T21:16:37;-0.10;99.90
38910;DHT22;24676;51.360;12.354;2022-11-20T21:19:24;-0.10;99.90
38910;DHT22;24676;51.360;12.354;2022-11-20T21:22:08;-0.10;99.90
38910;DHT22;24676;51.360;12.354;2022-11-20T21:24:52;0.00;99.90
38910;DHT22;24676;51.360;12.354;2022-11-20T21:27:37;-0.10;99.90
38910;DHT22;24676;51.360;12.354;2022-11-20T21:30:21;-0.10;99.90
38910;DHT22;24676;51.360;12.354;2022-11-20T21:33:06;-0.10;99.90
38910;DHT22;24676;51.360;12.354;2022-11-20T21:35:50;-0.10;99.90
38910;DHT22;24676;51.360;12.354;2022-11-20T21:38:35;-0.10;99.90
38910;DHT22;24676;51.360;12.354;2022-11-20T21:41:19;-0.10;99.90
38910;DHT22;24676;51.360;12.354;2022-11-20T21:44:05;-0.10;99.90
38910;DHT22;24676;51.360;12.354;2022-11-20T21:46:49;-0.10;99.90
38910;DHT22;24676;51.360;12.354;2022-11-20T21:49:34;-0.10;99.90
38910;DHT22;24676;51.360;12.354;2022-11-20T21:52:18;-0.10;99.90
38910;DHT22;24676;51.360;12.354;2022-11-20T21:55:02;-0.10;99.90
38910;DHT22;24676;51.360;12.354;2022-11-20T21:57:47;-0.10;99.90
